Time;durP1;ratioP1;P1;durP2;ratioP2;P2;SDS_P1;SDS_P2;PMS_P1;PMS_P2;Temp;Humidity;BMP_temperature;BMP_pressure;BME280_temperature;BME280_humidity;BME280_pressure;Samples;Min_cycle;Max_cycle;Signal;HPM_P1;HPM_P2
2023/05/05 00:00:57;;;;;;;13.13;5.55;;;10.00;81.10;;;;;;5090244;28;20325;-50
2023/05/05 00:03:25;;;;;;;9.68;5.25;;;10.00;81.30;;;;;;5060371;28;20343;-49
2023/05/05 00:05:54;;;;;;;13.93;4.63;;;10.00;81.10;;;;;;5062087;28;20361;-51
2023/05/05 00:08:24;;;;;;;10.10;5.93;;;10.00;80.70;;;;;;5088674;28;20062;-48
2023/05/05 00:10:51;;;;;;;12.63;6.20;;;10.00;80.80;;;;;;5088921;28;20070;-50
2023/05/05 00:13:21;;;;;;;10.52;4.63;;;10.00;80.50;;;;;;5088403;28;20029;-51
2023/05/05 00:15:50;;;;;;;10.90;4.43;;;10.00;80.40;;;;;;5062080;28;20032;-53
2023/05/05 00:18:18;;;;;;;16.77;5.13;;;9.90;80.40;;;;;;5054628;28;20331;-53
2023/05/05 00:20:46;;;;;;;9.60;4.35;;;9.90;80.50;;;;;;5089094;28;20039;-47
2023/05/05 00:23:14;;;;;;;11.70;4.80;;;9.90;80.50;;;;;;5070184;28;20481;-50
2023/05/05 00:25:44;;;;;;;10.40;4.82;;;9.90;80.40;;;;;;5067048;28;20380;-50
2023/05/05 00:28:13;;;;;;;11.32;5.03;;;9.90;80.50;;;;;;5074107;28;20094;-47
2023/05/05 00:30:40;;;;;;;10.05;4.15;;;9.90;80.40;;;;;;5054701;28;20028;-51
2023/05/05 00:33:07;;;;;;;12.77;4.95;;;9.90;80.60;;;;;;5094512;28;20032;-51
2023/05/05 00:35:33;;;;;;;8.05;5.40;;;9.90;80.50;;;;;;5055009;28;20037;-49
2023/05/05 00:38:00;;;;;;;15.70;4.75;;;9.80;80.50;;;;;;5054371;28;20040;-50
2023/05/05 00:40:27;;;;;;;8.32;4.35;;;9.80;80.60;;;;;;5066636;28;20024;-46
2023/05/05 00:42:53;;;;;;;11.43;5.05;;;9.80;80.70;;;;;;5070254;28;20033;-49
2023/05/05 00:45:21;;;;;;;7.15;3.42;;;9.80;80.60;;;;;;5064437;28;20120;-47
2023/05/05 00:47:58;;;;;;;8.65;4.03;;;9.80;80.30;;;;;;5094274;28;20055;-47
2023/05/05 00:50:43;;;;;;;8.88;4.72;;;9.80;80.20;;;;;;5087544;28;20103;-49
2023/05/05 00:53:11;;;;;;;10.68;4.28;;;9.80;80.40;;;;;;5073633;28;20032;-52
2023/05/05 00:55:41;;;;;;;17.88;4.47;;;9.80;80.40;;;;;;5073827;28;20047;-51
2023/05/05 00:58:08;;;;;;;9.27;4.70;;;9.80;80.40;;;;;;5053966;28;20350;-46
2023/05/05 01:00:35;;;;;;;6.10;3.45;;;9.80;80.50;;;;;;5043020;28;20145;-48
2023/05/05 01:03:03;;;;;;;10.57;4.53;;;9.80;79.90;;;;;;5081141;28;20033;-53
2023/05/05 01:05:47;;;;;;;7.25;4.05;;;9.80;79.60;;;;;;5089086;28;20389;-47
2023/05/05 01:08:39;;;;;;;7.95;4.55;;;9.80;79.80;;;;;;5060124;28;20456;-47
2023/05/05 01:11:18;;;;;;;9.73;3.95;;;9.80;79.90;;;;;;5065520;28;20028;-47
2023/05/05 01:13:56;;;;;;;11.98;4.10;;;9.70;80.10;;;;;;5058309;28;20115;-46
2023/05/05 01:16:28;;;;;;;14.83;4.57;;;9.70;80.10;;;;;;5064810;28;20036;-47
2023/05/05 01:19:32;;;;;;;12.93;5.20;;;9.70;79.90;;;;;;5056745;28;20029;-50
2023/05/05 01:22:02;;;;;;;11.10;4.82;;;9.70;80.10;;;;;;5053398;28;20103;-46
2023/05/05 01:25:05;;;;;;;11.30;4.75;;;9.60;80.10;;;;;;5056677;28;20032;-48
2023/05/05 01:27:47;;;;;;;9.93;4.13;;;9.70;80.00;;;;;;5066554;28;20062;-47
2023/05/05 01:30:52;;;;;;;7.25;4.22;;;9.70;79.90;;;;;;5090763;28;20093;-47
2023/05/05 01:33:26;;;;;;;9.43;4.28;;;9.70;79.70;;;;;;5052964;28;20028;-48
2023/05/05 01:35:56;;;;;;;7.63;4.05;;;9.60;79.90;;;;;;5078512;28;20107;-46
2023/05/05 01:38:35;;;;;;;7.85;3.72;;;9.60;79.90;;;;;;5077249;28;20458;-48
2023/05/05 01:41:09;;;;;;;14.90;4.78;;;9.60;79.80;;;;;;5054717;28;20025;-46
2023/05/05 01:43:37;;;;;;;15.05;4.40;;;9.60;79.90;;;;;;5053234;28;20128;-46
2023/05/05 01:46:05;;;;;;;7.32;3.85;;;9.60;79.60;;;;;;5060009;28;20031;-48
2023/05/05 01:48:32;;;;;;;11.15;3.92;;;9.60;79.40;;;;;;5091197;28;20085;-46
2023/05/05 01:51:02;;;;;;;7.38;3.55;;;9.60;79.10;;;;;;5090537;28;20480;-46
2023/05/05 01:53:31;;;;;;;8.30;4.10;;;9.60;78.80;;;;;;5056699;28;20283;-47
2023/05/05 01:55:58;;;;;;;8.23;3.50;;;9.50;78.60;;;;;;5093170;28;20461;-47
2023/05/05 01:58:27;;;;;;;12.25;5.07;;;9.50;78.50;;;;;;5084248;28;20484;-49
2023/05/05 02:00:56;;;;;;;8.80;3.50;;;9.50;78.50;;;;;;5087745;28;20020;-46
2023/05/05 02:03:26;;;;;;;10.68;3.67;;;9.60;78.10;;;;;;5053223;28;20031;-47
2023/05/05 02:05:53;;;;;;;9.70;3.75;;;9.60;78.10;;;;;;5052903;28;20101;-47
2023/05/05 02:08:24;;;;;;;10.88;3.97;;;9.50;77.90;;;;;;5070806;28;20076;-47
2023/05/05 02:10:52;;;;;;;9.20;4.18;;;9.50;78.00;;;;;;5053311;28;20056;-46
2023/05/05 02:13:22;;;;;;;7.82;3.35;;;9.50;77.70;;;;;;5050452;28;20039;-48
2023/05/05 02:15:49;;;;;;;6.10;3.80;;;9.50;77.50;;;;;;5079756;28;20028;-47
2023/05/05 02:18:16;;;;;;;11.00;3.70;;;9.40;77.60;;;;;;5088493;28;20128;-47
2023/05/05 02:20:45;;;;;;;7.05;4.00;;;9.40;77.60;;;;;;5084196;28;20093;-47
2023/05/05 02:23:11;;;;;;;8.52;3.65;;;9.40;77.60;;;;;;5079770;28;20040;-46
2023/05/05 02:25:40;;;;;;;8.05;3.25;;;9.40;77.60;;;;;;5071018;28;20609;-49
2023/05/05 02:28:37;;;;;;;11.73;4.05;;;9.30;77.40;;;;;;5092702;28;20020;-49
2023/05/05 02:31:06;;;;;;;9.32;3.75;;;9.30;77.60;;;;;;5039873;28;20105;-47
2023/05/05 02:33:34;;;;;;;8.27;3.63;;;9.30;77.40;;;;;;5056300;28;20036;-48
2023/05/05 02:36:22;;;;;;;8.20;3.75;;;9.30;77.30;;;;;;5056595;28;20017;-46
2023/05/05 02:38:55;;;;;;;9.73;3.65;;;9.30;77.40;;;;;;5085223;28;20060;-47
2023/05/05 02:41:25;;;;;;;12.32;4.03;;;9.30;77.40;;;;;;5091128;28;20024;-47
2023/05/05 02:43:54;;;;;;;12.27;4.00;;;9.30;77.10;;;;;;5087718;28;20393;-47
2023/05/05 02:46:21;;;;;;;10.88;3.83;;;9.30;77.40;;;;;;5074988;28;20036;-46
2023/05/05 02:48:48;;;;;;;11.63;3.30;;;9.30;77.50;;;;;;5082839;28;20040;-46
2023/05/05 02:51:13;;;;;;;8.45;3.17;;;9.20;77.30;;;;;;5056230;28;20021;-47
2023/05/05 02:53:40;;;;;;;11.82;3.30;;;9.20;77.50;;;;;;5061552;28;20102;-46
2023/05/05 02:56:27;;;;;;;7.80;3.03;;;9.20;77.50;;;;;;5056414;28;20036;-47
2023/05/05 02:59:07;;;;;;;10.50;4.45;;;9.20;77.50;;;;;;5070891;28;20028;-47
2023/05/05 03:01:52;;;;;;;5.57;3.45;;;9.20;77.40;;;;;;5093642;28;20480;-46
2023/05/05 03:04:26;;;;;;;9.55;4.03;;;9.20;77.40;;;;;;5076764;28;20426;-48
2023/05/05 03:06:57;;;;;;;8.98;3.70;;;9.20;77.10;;;;;;5075199;28;20017;-51
2023/05/05 03:09:45;;;;;;;7.03;3.13;;;9.20;77.20;;;;;;5070766;28;20041;-50
2023/05/05 03:12:20;;;;;;;12.73;3.80;;;9.20;77.10;;;;;;5058430;28;20060;-46
2023/05/05 03:14:53;;;;;;;11.52;3.75;;;9.10;77.10;;;;;;5042260;28;20442;-47
2023/05/05 03:17:21;;;;;;;7.43;3.53;;;9.20;77.40;;;;;;5077268;28;20447;-47
2023/05/05 03:19:50;;;;;;;7.18;3.30;;;9.10;77.80;;;;;;5093102;28;20446;-46
2023/05/05 03:22:17;;;;;;;7.35;4.18;;;9.10;78.10;;;;;;5053722;28;20078;-49
2023/05/05 03:24:49;;;;;;;8.23;3.17;;;9.10;78.10;;;;;;5055912;28;20316;-47
2023/05/05 03:27:16;;;;;;;9.75;4.00;;;9.10;78.10;;;;;;5055660;28;20377;-47
2023/05/05 03:29:42;;;;;;;10.80;3.55;;;9.00;77.90;;;;;;5063392;28;20020;-47
2023/05/05 03:32:09;;;;;;;6.95;3.25;;;9.00;78.00;;;;;;5088322;28;20028;-47
2023/05/05 03:34:36;;;;;;;9.13;3.70;;;9.00;77.90;;;;;;5061839;28;20025;-47
2023/05/05 03:37:03;;;;;;;7.50;3.22;;;9.00;78.10;;;;;;5077114;28;20295;-47
2023/05/05 03:39:30;;;;;;;5.68;3.33;;;9.10;78.00;;;;;;5070239;28;20020;-50
2023/05/05 03:41:57;;;;;;;8.90;3.15;;;9.00;78.20;;;;;;5076780;28;20031;-48
2023/05/05 03:44:23;;;;;;;10.50;2.70;;;9.00;78.10;;;;;;5077155;28;20027;-47
2023/05/05 03:46:50;;;;;;;7.35;3.88;;;9.00;78.00;;;;;;5073412;28;20389;-48
2023/05/05 03:49:18;;;;;;;9.05;3.03;;;9.00;78.10;;;;;;5069450;28;20533;-46
2023/05/05 03:51:44;;;;;;;6.97;2.95;;;9.00;78.10;;;;;;5074167;28;20486;-47
2023/05/05 03:54:11;;;;;;;8.25;3.70;;;9.00;78.00;;;;;;5054605;28;20033;-49
2023/05/05 03:56:38;;;;;;;8.23;4.00;;;9.00;78.00;;;;;;5037122;28;20040;-47
2023/05/05 03:59:07;;;;;;;10.48;3.47;;;8.90;77.50;;;;;;5085732;28;20081;-47
2023/05/05 04:01:37;;;;;;;7.68;3.40;;;9.00;77.60;;;;;;5092439;28;20437;-47
2023/05/05 04:04:04;;;;;;;9.68;3.40;;;9.00;77.60;;;;;;5094356;28;20032;-47
2023/05/05 04:06:31;;;;;;;8.25;3.13;;;9.00;77.70;;;;;;5064542;28;20064;-47
2023/05/05 04:08:58;;;;;;;6.97;2.78;;;9.00;77.80;;;;;;5054663;28;20045;-48
2023/05/05 04:11:26;;;;;;;8.07;3.22;;;9.00;77.30;;;;;;5063210;28;20028;-48
2023/05/05 04:13:53;;;;;;;8.30;3.07;;;9.00;77.40;;;;;;5044277;28;20024;-47
2023/05/05 04:16:20;;;;;;;7.38;3.80;;;9.00;77.60;;;;;;5082885;28;20667;-50
2023/05/05 04:18:47;;;;;;;9.40;3.75;;;9.00;77.30;;;;;;5082817;28;20032;-47
2023/05/05 04:21:16;;;;;;;14.52;4.95;;;9.10;77.50;;;;;;5073555;28;20035;-50
2023/05/05 04:23:42;;;;;;;8.38;4.20;;;9.00;77.60;;;;;;5094998;28;20070;-49
2023/05/05 04:26:12;;;;;;;9.98;4.15;;;9.10;77.30;;;;;;5084400;28;20487;-50
2023/05/05 04:28:41;;;;;;;6.93;3.83;;;9.20;77.30;;;;;;5076965;28;20017;-51
2023/05/05 04:31:09;;;;;;;10.85;4.47;;;9.10;77.50;;;;;;5089352;28;20028;-52
2023/05/05 04:33:36;;;;;;;7.35;3.10;;;9.20;77.00;;;;;;5082935;28;20028;-49
2023/05/05 04:36:03;;;;;;;8.10;3.35;;;9.20;76.60;;;;;;5090249;28;20114;-52
2023/05/05 04:38:30;;;;;;;5.45;3.35;;;9.20;76.50;;;;;;5093717;28;20553;-48
2023/05/05 04:40:58;;;;;;;8.75;3.20;;;9.20;76.40;;;;;;5073945;28;20024;-48
2023/05/05 04:43:25;;;;;;;7.20;2.90;;;9.30;76.40;;;;;;5073959;28;20626;-47
2023/05/05 04:45:55;;;;;;;12.02;3.92;;;9.40;76.20;;;;;;5082915;28;20337;-51
2023/05/05 04:48:22;;;;;;;8.80;3.42;;;9.40;75.90;;;;;;5060123;28;20029;-49
2023/05/05 04:50:47;;;;;;;7.70;3.10;;;9.40;75.70;;;;;;5070802;28;20086;-50
2023/05/05 04:53:13;;;;;;;7.88;3.58;;;9.40;75.70;;;;;;5069335;28;20446;-48
2023/05/05 04:55:40;;;;;;;7.28;3.35;;;9.40;75.90;;;;;;5079058;28;20035;-52
2023/05/05 04:58:07;;;;;;;5.13;3.05;;;9.40;75.70;;;;;;5053896;28;20029;-47
2023/05/05 05:00:37;;;;;;;9.70;3.60;;;9.40;75.40;;;;;;5041802;28;20028;-51
2023/05/05 05:03:05;;;;;;;6.45;2.88;;;9.40;75.60;;;;;;5068799;28;20091;-52
2023/05/05 05:05:31;;;;;;;8.25;3.33;;;9.50;75.40;;;;;;5088784;28;20142;-49
2023/05/05 05:07:57;;;;;;;9.18;4.43;;;9.60;75.20;;;;;;5091720;28;20055;-49
2023/05/05 05:10:24;;;;;;;6.82;3.50;;;9.60;75.20;;;;;;5086222;28;20081;-50
2023/05/05 05:12:50;;;;;;;11.63;3.75;;;9.50;75.40;;;;;;5090794;28;20043;-48
2023/05/05 05:15:17;;;;;;;13.55;4.85;;;9.60;75.30;;;;;;5090805;28;20109;-47
2023/05/05 05:17:44;;;;;;;8.48;3.38;;;9.50;75.60;;;;;;5075601;28;20110;-49
2023/05/05 05:20:11;;;;;;;8.43;3.38;;;9.60;75.50;;;;;;5077157;28;20085;-47
2023/05/05 05:22:39;;;;;;;6.82;3.33;;;9.60;75.20;;;;;;5093985;28;20070;-47
2023/05/05 05:25:07;;;;;;;9.27;3.05;;;9.60;75.30;;;;;;5092781;28;20637;-47
2023/05/05 05:27:34;;;;;;;11.32;3.30;;;9.70;75.20;;;;;;5072836;28;20040;-48
2023/05/05 05:30:00;;;;;;;8.40;3.55;;;9.70;75.10;;;;;;5069724;28;20429;-47
2023/05/05 05:32:28;;;;;;;9.63;4.00;;;9.70;75.50;;;;;;5052778;28;20475;-47
2023/05/05 05:34:56;;;;;;;8.73;3.55;;;9.80;75.40;;;;;;5082860;28;20032;-49
2023/05/05 05:37:27;;;;;;;8.02;3.45;;;9.70;75.30;;;;;;5082908;28;20032;-47
2023/05/05 05:39:53;;;;;;;8.32;4.00;;;9.90;75.40;;;;;;5093939;28;20016;-51
2023/05/05 05:42:20;;;;;;;8.38;3.83;;;9.90;75.00;;;;;;5077951;28;20033;-50
2023/05/05 05:44:47;;;;;;;7.85;3.65;;;9.80;75.00;;;;;;5053278;28;20040;-51
2023/05/05 05:47:14;;;;;;;7.57;4.20;;;9.80;75.20;;;;;;5073042;28;20342;-51
2023/05/05 05:49:41;;;;;;;7.65;3.22;;;9.80;75.50;;;;;;5069112;28;20040;-48
2023/05/05 05:52:09;;;;;;;9.38;3.85;;;9.90;76.00;;;;;;5071758;28;20110;-48
2023/05/05 05:54:35;;;;;;;10.00;3.67;;;9.90;75.90;;;;;;5092108;28;20056;-48
2023/05/05 05:57:05;;;;;;;7.65;2.80;;;10.00;75.60;;;;;;5081735;28;20347;-50
2023/05/05 05:59:32;;;;;;;6.50;3.63;;;10.10;74.10;;;;;;5052994;28;20319;-46
2023/05/05 06:01:59;;;;;;;6.93;3.45;;;10.30;73.90;;;;;;5067955;28;20131;-51
2023/05/05 06:04:26;;;;;;;7.55;2.72;;;10.40;73.90;;;;;;5071997;28;20021;-53
2023/05/05 06:06:52;;;;;;;8.32;3.13;;;10.40;73.50;;;;;;5071143;28;20043;-46
2023/05/05 06:09:21;;;;;;;7.63;3.55;;;10.50;73.20;;;;;;5052142;28;20050;-51
2023/05/05 06:11:48;;;;;;;7.60;3.72;;;10.60;72.90;;;;;;5073031;28;20033;-53
2023/05/05 06:14:15;;;;;;;6.28;3.17;;;10.60;72.80;;;;;;5074095;28;20094;-47
2023/05/05 06:16:41;;;;;;;9.55;3.33;;;10.70;72.50;;;;;;5076955;28;20031;-50
2023/05/05 06:19:09;;;;;;;6.10;3.22;;;10.80;72.30;;;;;;5062295;28;20508;-49
2023/05/05 06:21:37;;;;;;;7.93;3.13;;;10.80;72.20;;;;;;5085266;28;20118;-48
2023/05/05 06:24:04;;;;;;;10.57;4.07;;;10.90;72.00;;;;;;5089270;28;20032;-46
2023/05/05 06:26:31;;;;;;;7.93;3.42;;;11.00;71.30;;;;;;5084302;28;20106;-51
2023/05/05 06:29:00;;;;;;;6.57;2.75;;;11.10;71.10;;;;;;5068382;28;20480;-46
2023/05/05 06:31:26;;;;;;;8.65;3.03;;;11.20;71.40;;;;;;5048432;28;20090;-47
2023/05/05 06:33:53;;;;;;;6.28;3.00;;;11.20;70.80;;;;;;5071424;28;20497;-48
2023/05/05 06:36:22;;;;;;;8.73;3.33;;;11.40;69.90;;;;;;5069332;28;20032;-51
2023/05/05 06:38:49;;;;;;;6.30;3.33;;;11.40;70.30;;;;;;5071931;28;20036;-47
2023/05/05 06:41:17;;;;;;;7.47;2.72;;;11.40;70.20;;;;;;5077027;28;20025;-47
2023/05/05 06:43:44;;;;;;;5.43;3.55;;;11.50;70.80;;;;;;5048469;28;20039;-52
2023/05/05 06:46:10;;;;;;;6.20;2.95;;;11.60;70.50;;;;;;5050185;28;20036;-48
2023/05/05 06:48:37;;;;;;;7.75;3.53;;;11.60;70.30;;;;;;5067180;28;20029;-52
2023/05/05 06:51:04;;;;;;;8.07;2.92;;;11.50;70.60;;;;;;5071682;28;20029;-49
2023/05/05 06:53:31;;;;;;;12.43;4.32;;;11.40;70.80;;;;;;5070022;28;20476;-48
2023/05/05 06:55:58;;;;;;;8.35;2.95;;;11.40;70.60;;;;;;5068744;28;20029;-50
2023/05/05 06:58:25;;;;;;;6.90;3.33;;;11.30;71.20;;;;;;5067627;28;20029;-48
2023/05/05 07:00:54;;;;;;;7.80;3.03;;;11.20;71.60;;;;;;5067542;28;20027;-47
2023/05/05 07:03:21;;;;;;;8.52;3.53;;;11.10;71.10;;;;;;5055325;28;20020;-48
2023/05/05 07:05:48;;;;;;;8.80;3.88;;;10.90;70.80;;;;;;5068863;28;20078;-47
2023/05/05 07:08:15;;;;;;;5.78;3.08;;;10.90;71.30;;;;;;5071841;28;20067;-48
2023/05/05 07:10:42;;;;;;;9.13;3.67;;;10.90;71.60;;;;;;5077470;28;20587;-47
2023/05/05 07:13:11;;;;;;;6.43;3.55;;;10.90;72.00;;;;;;5069607;28;20025;-47
2023/05/05 07:15:45;;;;;;;11.93;3.40;;;10.90;72.40;;;;;;5068926;28;20107;-47
2023/05/05 07:18:15;;;;;;;8.02;3.60;;;10.90;72.80;;;;;;5052677;28;20025;-46
2023/05/05 07:20:43;;;;;;;7.65;3.60;;;10.80;73.10;;;;;;5072295;28;20036;-51
2023/05/05 07:23:10;;;;;;;9.90;3.92;;;10.80;72.90;;;;;;5073571;28;20050;-46
2023/05/05 07:25:37;;;;;;;8.15;3.83;;;10.80;73.60;;;;;;5071128;28;20024;-47
2023/05/05 07:28:03;;;;;;;11.07;4.47;;;10.80;74.00;;;;;;5074871;28;20032;-47
2023/05/05 07:30:30;;;;;;;10.52;5.25;;;10.80;74.00;;;;;;5052998;28;20040;-52
2023/05/05 07:32:56;;;;;;;8.43;3.83;;;10.80;73.90;;;;;;5073478;28;20032;-47
2023/05/05 07:35:23;;;;;;;7.72;3.75;;;10.70;73.80;;;;;;5072888;28;20028;-47
2023/05/05 07:37:49;;;;;;;6.03;3.30;;;10.70;74.00;;;;;;5078830;28;20032;-47
2023/05/05 07:40:16;;;;;;;8.57;3.10;;;10.80;73.90;;;;;;5079453;28;20465;-52
2023/05/05 07:42:43;;;;;;;11.52;3.40;;;10.80;74.30;;;;;;5074214;28;20036;-47
2023/05/05 07:45:10;;;;;;;10.05;3.72;;;10.90;74.20;;;;;;5064606;28;20078;-46
2023/05/05 07:47:37;;;;;;;10.93;4.70;;;10.90;74.30;;;;;;5074111;28;20559;-55
2023/05/05 07:50:03;;;;;;;8.65;4.45;;;10.90;75.90;;;;;;5073189;28;20491;-54
2023/05/05 07:52:32;;;;;;;9.82;5.45;;;10.80;78.50;;;;;;5055224;28;20029;-48
2023/05/05 07:55:01;;;;;;;7.93;4.68;;;10.70;80.10;;;;;;5074323;28;20021;-48
2023/05/05 07:57:28;;;;;;;8.80;4.60;;;10.70;80.10;;;;;;5073815;28;20055;-47
2023/05/05 07:59:55;;;;;;;12.40;5.05;;;10.60;81.10;;;;;;5056377;28;20020;-46
2023/05/05 08:02:20;;;;;;;11.50;4.75;;;10.60;81.00;;;;;;5072669;28;20063;-46
2023/05/05 08:04:47;;;;;;;8.07;4.60;;;10.60;80.30;;;;;;5053737;28;20052;-46
2023/05/05 08:07:15;;;;;;;10.48;5.82;;;10.70;81.40;;;;;;5070907;28;20036;-46
2023/05/05 08:09:41;;;;;;;7.03;4.38;;;10.70;81.20;;;;;;5073416;28;20047;-45
2023/05/05 08:12:11;;;;;;;8.68;4.88;;;10.80;82.30;;;;;;5070650;28;20033;-48
2023/05/05 08:14:39;;;;;;;8.77;4.15;;;10.90;81.80;;;;;;5084690;28;20028;-45
2023/05/05 08:17:06;;;;;;;13.05;5.18;;;10.90;81.30;;;;;;5076101;28;20423;-46
2023/05/05 08:19:35;;;;;;;7.70;3.70;;;11.10;81.20;;;;;;5055716;28;20063;-50
2023/05/05 08:22:02;;;;;;;9.50;4.80;;;11.30;81.40;;;;;;5082064;28;20048;-44
2023/05/05 08:24:28;;;;;;;12.23;4.55;;;11.50;82.10;;;;;;5079267;28;20032;-46
2023/05/05 08:26:55;;;;;;;10.32;5.35;;;11.70;81.80;;;;;;5085385;28;20032;-44
2023/05/05 08:29:24;;;;;;;10.55;6.43;;;11.70;79.30;;;;;;5074653;28;20350;-43
2023/05/05 08:31:51;;;;;;;7.90;4.07;;;11.90;79.10;;;;;;5071575;28;20024;-43
2023/05/05 08:34:17;;;;;;;10.52;4.22;;;11.90;78.80;;;;;;5057408;28;20048;-43
2023/05/05 08:36:47;;;;;;;9.15;4.22;;;11.90;78.50;;;;;;5090206;28;20024;-44
2023/05/05 08:39:15;;;;;;;7.40;4.18;;;11.90;77.60;;;;;;5053420;28;20033;-45
2023/05/05 08:41:42;;;;;;;11.27;4.78;;;11.90;77.50;;;;;;5067066;28;20031;-50
2023/05/05 08:44:12;;;;;;;7.18;4.85;;;11.90;76.90;;;;;;5071666;28;20710;-45
2023/05/05 08:46:41;;;;;;;7.57;4.18;;;11.90;77.60;;;;;;5054461;28;20024;-44
2023/05/05 08:49:14;;;;;;;12.60;4.53;;;12.30;77.90;;;;;;5050840;28;20048;-44
2023/05/05 08:51:42;;;;;;;8.25;4.07;;;12.90;76.20;;;;;;5070381;28;20025;-44
2023/05/05 08:54:23;;;;;;;8.13;4.13;;;13.30;75.40;;;;;;5055548;28;20021;-45
2023/05/05 08:56:50;;;;;;;8.90;4.13;;;14.10;74.50;;;;;;5052968;28;20037;-48
2023/05/05 08:59:19;;;;;;;9.60;4.82;;;14.50;73.00;;;;;;5053918;28;20020;-46
2023/05/05 09:01:47;;;;;;;9.00;4.35;;;15.20;72.10;;;;;;5070316;28;20055;-45
2023/05/05 09:04:15;;;;;;;6.97;4.30;;;15.50;68.80;;;;;;5053713;28;20071;-46
2023/05/05 09:06:40;;;;;;;7.47;4.18;;;15.40;67.80;;;;;;5054963;28;20040;-49
2023/05/05 09:09:07;;;;;;;9.02;4.50;;;15.20;67.30;;;;;;5053807;28;20097;-47
2023/05/05 09:11:35;;;;;;;10.80;4.90;;;15.10;67.10;;;;;;5053672;28;20028;-50
2023/05/05 09:14:02;;;;;;;6.88;4.53;;;14.80;66.80;;;;;;5073616;28;20099;-47
2023/05/05 09:16:29;;;;;;;7.28;3.63;;;14.50;67.50;;;;;;5056424;28;20073;-47
2023/05/05 09:19:03;;;;;;;9.98;4.70;;;14.40;68.20;;;;;;5066966;28;20067;-48
2023/05/05 09:21:30;;;;;;;8.35;4.25;;;14.70;68.20;;;;;;5070174;28;20052;-52
2023/05/05 09:24:11;;;;;;;5.78;3.40;;;14.80;67.50;;;;;;5070318;28;20037;-47
2023/05/05 09:26:40;;;;;;;7.82;4.05;;;14.70;67.70;;;;;;5068600;28;20457;-48
2023/05/05 09:29:15;;;;;;;12.13;5.28;;;14.60;67.50;;;;;;5065455;28;20354;-47
2023/05/05 09:31:42;;;;;;;8.55;4.57;;;14.80;69.00;;;;;;5063467;28;20595;-47
2023/05/05 09:34:16;;;;;;;10.05;4.47;;;15.40;67.70;;;;;;5065226;28;20021;-49
2023/05/05 09:36:49;;;;;;;9.55;4.88;;;15.80;65.10;;;;;;5070155;28;20474;-47
2023/05/05 09:39:19;;;;;;;7.88;4.20;;;16.70;64.50;;;;;;5075507;28;20041;-47
2023/05/05 09:41:46;;;;;;;11.38;3.97;;;17.20;62.50;;;;;;5056710;28;20029;-50
2023/05/05 09:44:16;;;;;;;12.68;4.20;;;17.60;60.70;;;;;;5061840;28;20072;-47
2023/05/05 09:46:54;;;;;;;11.23;4.43;;;17.60;57.70;;;;;;5071957;28;20085;-48
2023/05/05 09:49:25;;;;;;;7.60;4.55;;;16.80;59.20;;;;;;5076094;28;20062;-48
2023/05/05 09:51:53;;;;;;;8.52;4.22;;;16.90;61.50;;;;;;5069738;28;20446;-47
2023/05/05 09:54:37;;;;;;;10.38;4.20;;;17.50;60.70;;;;;;5072924;28;20033;-48
2023/05/05 09:57:03;;;;;;;6.47;3.67;;;17.70;59.70;;;;;;5078272;28;20021;-47
2023/05/05 09:59:29;;;;;;;9.40;4.78;;;18.30;60.30;;;;;;5053890;28;20074;-52
2023/05/05 10:02:13;;;;;;;9.10;4.55;;;18.70;57.50;;;;;;5077000;28;20028;-49
2023/05/05 10:04:44;;;;;;;11.27;5.10;;;19.10;55.40;;;;;;5052229;28;20029;-48
2023/05/05 10:07:22;;;;;;;6.40;4.40;;;19.00;55.30;;;;;;5085287;28;20492;-48
2023/05/05 10:09:49;;;;;;;14.38;4.40;;;19.30;53.00;;;;;;5064562;28;20082;-47
2023/05/05 10:12:16;;;;;;;9.55;4.75;;;19.30;54.90;;;;;;5071918;28;20032;-49
2023/05/05 10:14:43;;;;;;;8.00;4.38;;;19.40;54.10;;;;;;5062713;28;20036;-48
2023/05/05 10:17:11;;;;;;;8.60;5.68;;;19.60;52.00;;;;;;5078591;28;20632;-50
2023/05/05 10:19:39;;;;;;;12.80;5.13;;;19.10;53.60;;;;;;5066399;28;20025;-47
2023/05/05 10:22:07;;;;;;;9.45;4.90;;;19.10;52.20;;;;;;5072245;28;20079;-47
2023/05/05 10:24:45;;;;;;;9.48;4.68;;;19.00;54.60;;;;;;5070568;28;20112;-50
2023/05/05 10:27:19;;;;;;;7.43;4.80;;;18.90;52.30;;;;;;5068948;28;20082;-49
2023/05/05 10:29:51;;;;;;;10.90;5.65;;;18.60;52.60;;;;;;5067848;28;20107;-48
2023/05/05 10:32:45;;;;;;;6.80;5.00;;;18.40;54.10;;;;;;5071595;28;20028;-47
2023/05/05 10:35:19;;;;;;;8.20;4.90;;;18.70;56.60;;;;;;5062870;28;20040;-47
2023/05/05 10:37:47;;;;;;;11.77;5.65;;;19.10;55.00;;;;;;5071675;28;20024;-48
2023/05/05 10:40:16;;;;;;;8.55;4.38;;;19.40;53.00;;;;;;5049851;28;20055;-48
2023/05/05 10:42:43;;;;;;;11.88;4.82;;;19.40;52.30;;;;;;5065907;28;20116;-49
2023/05/05 10:45:13;;;;;;;9.43;4.88;;;19.50;53.40;;;;;;5036407;28;20037;-47
2023/05/05 10:47:40;;;;;;;7.25;4.80;;;19.60;51.20;;;;;;5070701;28;20032;-48
2023/05/05 10:50:32;;;;;;;9.15;4.65;;;19.80;53.20;;;;;;5091625;28;20099;-53
2023/05/05 10:53:17;;;;;;;8.75;4.70;;;19.70;52.00;;;;;;5065635;28;20036;-49
2023/05/05 10:55:56;;;;;;;8.25;4.90;;;19.70;51.20;;;;;;5075753;28;20035;-48
2023/05/05 10:58:35;;;;;;;7.55;5.50;;;19.80;51.70;;;;;;5075158;28;20036;-50
2023/05/05 11:01:04;;;;;;;10.15;5.65;;;19.60;49.50;;;;;;5074547;28;20025;-47
2023/05/05 11:03:31;;;;;;;7.03;4.50;;;19.40;52.00;;;;;;5076283;28;20021;-48
2023/05/05 11:06:06;;;;;;;7.20;4.50;;;19.70;52.10;;;;;;5066171;28;20062;-49
2023/05/05 11:08:40;;;;;;;7.40;4.38;;;19.80;50.50;;;;;;5055567;28;20049;-50
2023/05/05 11:11:09;;;;;;;12.02;6.30;;;19.90;49.90;;;;;;5051549;28;20033;-49
2023/05/05 11:13:40;;;;;;;8.10;4.22;;;19.80;50.40;;;;;;5072507;28;20032;-47
2023/05/05 11:16:46;;;;;;;6.53;5.28;;;19.90;51.10;;;;;;5064486;28;20115;-49
2023/05/05 11:19:52;;;;;;;8.57;4.65;;;19.40;50.50;;;;;;5076585;28;20706;-49
2023/05/05 11:22:19;;;;;;;8.93;4.82;;;19.20;51.90;;;;;;5035117;28;20055;-51
2023/05/05 11:24:46;;;;;;;8.55;4.60;;;19.50;51.90;;;;;;5071046;28;20326;-51
2023/05/05 11:27:12;;;;;;;9.02;5.07;;;19.60;50.40;;;;;;5075430;28;20074;-51
2023/05/05 11:30:18;;;;;;;8.93;5.38;;;19.40;51.00;;;;;;5077974;28;20033;-48
2023/05/05 11:33:33;;;;;;;8.77;4.97;;;19.60;52.70;;;;;;5074649;28;20066;-49
2023/05/05 11:36:19;;;;;;;9.05;4.93;;;19.80;52.20;;;;;;5071336;28;20057;-48
2023/05/05 11:39:04;;;;;;;9.57;5.28;;;19.70;51.30;;;;;;5071593;28;20090;-50
2023/05/05 11:41:45;;;;;;;8.52;5.45;;;19.70;51.40;;;;;;5074948;28;20067;-48
2023/05/05 11:44:30;;;;;;;8.45;5.43;;;19.60;51.90;;;;;;5093621;28;20078;-50
2023/05/05 11:47:05;;;;;;;9.73;5.35;;;19.60;53.30;;;;;;5075399;28;20065;-53
2023/05/05 11:49:49;;;;;;;10.45;4.82;;;19.70;53.70;;;;;;5061666;28;20046;-48
2023/05/05 11:52:16;;;;;;;7.65;5.10;;;19.80;53.50;;;;;;5080270;28;20032;-50
2023/05/05 11:54:47;;;;;;;8.27;5.20;;;19.50;51.20;;;;;;5089803;28;20043;-49
2023/05/05 11:57:16;;;;;;;9.88;5.15;;;19.50;52.30;;;;;;5077908;28;20048;-48
2023/05/05 12:00:02;;;;;;;10.90;5.00;;;19.60;51.90;;;;;;5072871;28;20457;-51
2023/05/05 12:02:30;;;;;;;10.55;5.18;;;19.60;51.50;;;;;;5076444;28;20418;-48
2023/05/05 12:04:58;;;;;;;13.88;5.47;;;19.40;51.20;;;;;;5089350;28;20123;-48
2023/05/05 12:07:26;;;;;;;8.73;5.15;;;19.30;53.00;;;;;;5065592;28;20488;-52
2023/05/05 12:09:54;;;;;;;11.30;4.72;;;19.30;52.70;;;;;;5084058;28;20024;-49
2023/05/05 12:12:33;;;;;;;12.23;5.78;;;19.40;53.20;;;;;;5073854;28;20115;-51
2023/05/05 12:15:00;;;;;;;10.82;5.97;;;19.50;54.20;;;;;;5079007;28;20415;-48
2023/05/05 12:17:45;;;;;;;13.60;5.75;;;19.70;53.30;;;;;;5091979;28;20040;-53
2023/05/05 12:20:12;;;;;;;11.60;5.57;;;19.80;51.80;;;;;;5081323;28;20510;-51
2023/05/05 12:22:39;;;;;;;8.00;5.15;;;19.40;52.30;;;;;;5075895;28;20032;-49
2023/05/05 12:25:07;;;;;;;10.98;5.72;;;19.00;53.50;;;;;;5082505;28;20056;-49
2023/05/05 12:27:34;;;;;;;12.32;5.65;;;19.00;55.20;;;;;;5075963;28;20028;-49
2023/05/05 12:30:17;;;;;;;9.85;4.65;;;19.30;55.00;;;;;;5081046;28;20135;-49
2023/05/05 12:32:47;;;;;;;7.97;5.35;;;19.80;52.20;;;;;;5073338;28;20033;-50
2023/05/05 12:35:15;;;;;;;13.23;6.47;;;19.80;52.20;;;;;;5057069;28;20036;-49
2023/05/05 12:37:42;;;;;;;8.77;5.38;;;19.90;52.30;;;;;;5077084;28;20028;-49
2023/05/05 12:40:44;;;;;;;8.60;6.20;;;19.90;53.40;;;;;;5078803;28;20017;-49
2023/05/05 12:43:32;;;;;;;14.68;6.03;;;19.80;51.80;;;;;;5066317;28;20156;-47
2023/05/05 12:46:17;;;;;;;13.43;5.80;;;19.70;52.20;;;;;;5035940;28;20642;-50
2023/05/05 12:48:44;;;;;;;9.57;5.65;;;19.70;52.10;;;;;;5046497;28;20032;-48
2023/05/05 12:51:22;;;;;;;10.00;5.72;;;19.70;51.80;;;;;;5085722;28;20037;-53
2023/05/05 12:54:01;;;;;;;7.88;5.10;;;19.50;51.70;;;;;;5063589;28;20028;-48
2023/05/05 12:56:46;;;;;;;12.68;6.30;;;19.40;52.30;;;;;;5070752;28;20108;-48
2023/05/05 12:59:20;;;;;;;9.73;5.90;;;19.40;51.90;;;;;;5080657;28;20043;-51
2023/05/05 13:02:00;;;;;;;8.75;5.97;;;19.30;52.50;;;;;;5075121;28;20020;-54
2023/05/05 13:04:27;;;;;;;9.02;5.38;;;19.10;52.30;;;;;;5053009;28;20083;-48
2023/05/05 13:07:15;;;;;;;9.88;5.90;;;19.10;53.10;;;;;;5065736;28;20028;-53